createdAt,value
2023-01-11T00:00:59.195Z,100948.00
2023-01-11T00:03:29.197Z,100954.56
2023-01-11T00:06:00.131Z,100936.31
2023-01-11T00:08:32.789Z,100941.53
2023-01-11T00:11:03.512Z,100938.25
2023-01-11T00:13:34.212Z,100933.94
2023-01-11T00:16:08.990Z,100928.63
2023-01-11T00:18:39.152Z,100926.63
2023-01-11T00:21:10.170Z,100937.81
2023-01-11T00:23:42.730Z,100931.50
2023-01-11T00:26:15.869Z,100929.84
2023-01-11T00:28:45.880Z,100922.59
2023-01-11T00:31:15.925Z,100914.56
2023-01-11T00:33:46.088Z,100916.88
2023-01-11T00:36:16.077Z,100908.28
2023-01-11T00:38:51.887Z,100911.06
2023-01-11T00:41:35.227Z,100921.25
2023-01-11T00:44:18.071Z,100912.19
2023-01-11T00:47:00.561Z,100906.31
2023-01-11T00:49:30.744Z,100901.78
2023-01-11T00:52:00.833Z,100892.78
2023-01-11T00:54:33.413Z,100897.03
2023-01-11T00:57:03.492Z,100888.84
2023-01-11T00:59:33.548Z,100893.41
2023-01-11T01:02:03.634Z,100895.59
2023-01-11T01:04:33.738Z,100887.63
2023-01-11T01:07:03.773Z,100887.81
2023-01-11T01:09:36.590Z,100877.50
2023-01-11T01:12:09.326Z,100886.53
2023-01-11T01:14:37.078Z,100878.72
2023-01-11T01:17:09.881Z,100877.03
2023-01-11T01:19:41.452Z,100867.47
2023-01-11T01:22:11.388Z,100862.44
2023-01-11T01:24:44.003Z,100868.53
2023-01-11T01:27:17.790Z,100859.63
2023-01-11T01:29:47.713Z,100860.78
2023-01-11T01:32:17.682Z,100858.97
2023-01-11T01:34:47.705Z,100853.84
2023-01-11T01:37:17.687Z,100846.34
2023-01-11T01:39:50.365Z,100853.97
2023-01-11T01:42:24.181Z,100835.47
2023-01-11T01:45:01.355Z,100837.97
2023-01-11T01:47:46.873Z,100832.09
2023-01-11T01:50:23.310Z,100832.06
2023-01-11T01:52:56.297Z,100827.34
2023-01-11T01:55:34.072Z,100828.41
2023-01-11T01:58:07.504Z,100827.75
2023-01-11T02:00:37.544Z,100833.41
2023-01-11T02:03:07.648Z,100817.44
2023-01-11T02:05:37.982Z,100814.34
2023-01-11T02:08:13.721Z,100809.16
2023-01-11T02:10:46.635Z,100801.53
2023-01-11T02:13:17.147Z,100802.25
2023-01-11T02:15:47.200Z,100793.78
2023-01-11T02:18:19.693Z,100785.53
2023-01-11T02:21:06.277Z,100776.28
2023-01-11T02:23:57.447Z,100758.91
2023-01-11T02:26:59.219Z,100758.72
2023-01-11T02:29:45.209Z,100757.31
2023-01-11T02:32:29.059Z,100757.59
2023-01-11T02:35:10.953Z,100752.00
2023-01-11T02:37:50.773Z,100744.84
2023-01-11T02:40:28.175Z,100757.09
2023-01-11T02:43:17.962Z,100743.88
2023-01-11T02:45:55.530Z,100732.56
2023-01-11T02:48:33.759Z,100730.19
2023-01-11T02:51:08.703Z,100718.69
2023-01-11T02:53:42.607Z,100718.34
2023-01-11T02:56:15.414Z,100719.94
2023-01-11T02:58:51.845Z,100713.72
2023-01-11T03:01:25.722Z,100717.41
2023-01-11T03:03:56.769Z,100718.59
2023-01-11T03:06:29.821Z,100711.88
2023-01-11T03:09:20.315Z,100701.91
2023-01-11T03:12:17.341Z,100705.94
2023-01-11T03:14:54.721Z,100703.78
2023-01-11T03:17:40.240Z,100705.72
2023-01-11T03:20:16.059Z,100712.91
2023-01-11T03:22:56.140Z,100696.53
2023-01-11T03:25:33.750Z,100689.22
2023-01-11T03:28:12.218Z,100690.09
2023-01-11T03:30:51.751Z,100685.41
2023-01-11T03:33:31.821Z,100675.41
2023-01-11T03:36:10.236Z,100664.47
2023-01-11T03:38:48.221Z,100668.03
2023-01-11T03:41:24.078Z,100670.50
2023-01-11T03:43:57.133Z,100675.78
2023-01-11T03:46:31.483Z,100668.69
2023-01-11T03:49:08.761Z,100657.88
2023-01-11T03:51:44.012Z,100654.84
2023-01-11T03:54:17.813Z,100662.69
2023-01-11T03:56:55.269Z,100651.38
2023-01-11T03:59:25.906Z,100654.66
2023-01-11T04:01:56.519Z,100642.56
2023-01-11T04:04:29.702Z,100643.66
2023-01-11T04:06:59.757Z,100638.88
2023-01-11T04:09:29.755Z,100637.91
2023-01-11T04:11:59.729Z,100638.13
2023-01-11T04:14:29.738Z,100632.47
2023-01-11T04:16:59.708Z,100631.31
2023-01-11T04:19:32.368Z,100633.69
2023-01-11T04:22:02.396Z,100636.03
2023-01-11T04:24:41.526Z,100640.38
2023-01-11T04:27:11.428Z,100631.06
2023-01-11T04:29:41.430Z,100630.06
2023-01-11T04:32:11.347Z,100628.94
2023-01-11T04:34:44.057Z,100623.81
2023-01-11T04:37:14.863Z,100621.59
2023-01-11T04:39:44.859Z,100614.34
2023-01-11T04:42:25.028Z,100623.09
2023-01-11T04:44:57.117Z,100612.41
2023-01-11T04:47:27.906Z,100608.16
2023-01-11T04:50:00.574Z,100599.38
2023-01-11T04:52:30.550Z,100595.41
2023-01-11T04:55:03.098Z,100590.41
2023-01-11T04:57:33.036Z,100591.28
2023-01-11T05:00:03.001Z,100575.75
2023-01-11T05:03:01.872Z,100568.81
2023-01-11T05:05:34.487Z,100568.75
2023-01-11T05:08:05.459Z,100584.91
2023-01-11T05:10:35.652Z,100588.72
2023-01-11T05:13:05.617Z,100576.78
2023-01-11T05:15:37.603Z,100572.28
2023-01-11T05:18:07.655Z,100568.25
2023-01-11T05:20:40.219Z,100569.38
2023-01-11T05:23:10.177Z,100561.34
2023-01-11T05:25:40.130Z,100566.81
2023-01-11T05:28:10.044Z,100556.22
2023-01-11T05:30:42.206Z,100547.75
2023-01-11T05:33:12.164Z,100549.53
2023-01-11T05:35:44.746Z,100547.34
2023-01-11T05:38:14.736Z,100544.44
2023-01-11T05:40:44.774Z,100544.47
2023-01-11T05:43:14.901Z,100542.22
2023-01-11T05:45:42.346Z,100534.72
2023-01-11T05:48:12.329Z,100537.53
2023-01-11T05:50:45.119Z,100530.59
2023-01-11T05:53:15.064Z,100528.25
2023-01-11T05:55:54.928Z,100528.56
2023-01-11T05:58:25.777Z,100499.69
2023-01-11T06:00:58.085Z,100526.19
2023-01-11T06:03:29.429Z,100522.16
2023-01-11T06:06:02.961Z,100517.84
2023-01-11T06:08:32.928Z,100521.28
2023-01-11T06:11:06.013Z,100523.13
2023-01-11T06:13:36.129Z,100526.88
2023-01-11T06:16:07.993Z,100531.69
2023-01-11T06:18:39.936Z,100523.72
2023-01-11T06:21:13.657Z,100503.44
2023-01-11T06:23:45.882Z,100505.94
2023-01-11T06:26:18.414Z,100510.94
2023-01-11T06:28:49.341Z,100502.88
2023-01-11T06:31:19.566Z,100516.47
2023-01-11T06:33:50.137Z,100514.81
2023-01-11T06:36:22.869Z,100507.84
2023-01-11T06:38:52.916Z,100509.78
2023-01-11T06:41:22.886Z,100508.66
2023-01-11T06:43:53.913Z,100511.47
2023-01-11T06:46:24.318Z,100502.88
2023-01-11T06:48:54.459Z,100504.00
2023-01-11T06:51:27.009Z,100490.94
2023-01-11T06:53:57.027Z,100504.41
2023-01-11T06:56:26.980Z,100506.75
2023-01-11T06:58:56.979Z,100499.25
2023-01-11T07:01:28.630Z,100514.81
2023-01-11T07:03:58.856Z,100515.94
2023-01-11T07:06:32.173Z,100508.56
2023-01-11T07:09:02.163Z,100519.41
2023-01-11T07:11:34.937Z,100520.22
2023-01-11T07:14:04.934Z,100526.47
2023-01-11T07:16:35.094Z,100529.19
2023-01-11T07:19:05.011Z,100532.13
2023-01-11T07:21:37.551Z,100528.81
2023-01-11T07:24:11.048Z,100526.72
2023-01-11T07:26:42.055Z,100526.03
2023-01-11T07:29:12.718Z,100536.72
2023-01-11T07:31:42.698Z,100534.22
2023-01-11T07:34:12.671Z,100530.34
2023-01-11T07:36:45.406Z,100526.59
2023-01-11T07:39:15.500Z,100530.63
2023-01-11T07:41:57.829Z,100527.44
2023-01-11T07:44:27.780Z,100527.84
2023-01-11T07:46:58.351Z,100529.38
2023-01-11T07:49:28.526Z,100533.00
2023-01-11T07:52:01.159Z,100531.59
2023-01-11T07:54:31.150Z,100529.50
2023-01-11T07:57:01.164Z,100529.38
2023-01-11T07:59:34.008Z,100527.28
2023-01-11T08:02:04.021Z,100516.31
2023-01-11T08:04:36.346Z,100521.75
2023-01-11T08:07:08.906Z,100521.72
2023-01-11T08:09:38.861Z,100514.50
2023-01-11T08:12:21.837Z,100511.47
2023-01-11T08:14:52.489Z,100513.28
2023-01-11T08:17:22.440Z,100521.19
2023-01-11T08:19:52.598Z,100512.03
2023-01-11T08:22:25.364Z,100504.53
2023-01-11T08:25:02.567Z,100511.63
2023-01-11T08:27:32.523Z,100507.03
2023-01-11T08:30:02.500Z,100502.84
2023-01-11T08:32:32.906Z,100511.47
2023-01-11T08:35:02.898Z,100487.56
2023-01-11T08:37:35.580Z,100503.13
2023-01-11T08:40:05.750Z,100502.19
2023-01-11T08:42:38.007Z,100497.88
2023-01-11T08:45:09.028Z,100499.97
2023-01-11T08:47:39.000Z,100499.81
2023-01-11T08:50:09.787Z,100495.09
2023-01-11T08:52:54.631Z,100503.81
2023-01-11T08:55:24.661Z,100495.91
2023-01-11T08:57:54.641Z,100504.00
2023-01-11T09:00:24.894Z,100488.22
2023-01-11T09:02:54.911Z,100485.63
2023-01-11T09:05:24.911Z,100488.59
2023-01-11T09:07:57.551Z,100490.69
2023-01-11T09:10:27.868Z,100479.53
2023-01-11T09:12:57.875Z,100479.97
2023-01-11T09:15:28.319Z,100473.09
2023-01-11T09:17:58.610Z,100492.81
2023-01-11T09:20:28.644Z,100495.59
2023-01-11T09:23:01.280Z,100491.69
2023-01-11T09:25:31.207Z,100487.19
2023-01-11T09:28:01.241Z,100483.03
2023-01-11T09:30:31.391Z,100480.75
2023-01-11T09:33:01.448Z,100479.34
2023-01-11T09:35:49.307Z,100474.66
2023-01-11T09:38:22.070Z,100468.59
2023-01-11T09:41:01.798Z,100462.44
2023-01-11T09:43:33.307Z,100462.16
2023-01-11T09:46:09.257Z,100455.41
2023-01-11T09:48:44.672Z,100457.41
2023-01-11T09:51:16.566Z,100451.06
2023-01-11T09:53:52.411Z,100445.75
2023-01-11T09:56:27.495Z,100453.22
2023-01-11T09:59:06.643Z,100457.72
2023-01-11T10:01:42.814Z,100458.59
2023-01-11T10:04:46.062Z,100449.38
2023-01-11T10:07:43.550Z,100459.63
2023-01-11T10:18:28.983Z,100444.63
2023-01-11T10:19:39.833Z,100428.38
2023-01-11T10:22:19.920Z,100433.53
2023-01-11T10:24:56.398Z,100443.53
2023-01-11T10:27:37.315Z,100428.28
2023-01-11T10:30:33.348Z,100431.28
2023-01-11T10:33:18.406Z,100420.22
2023-01-11T10:36:14.922Z,100419.84
2023-01-11T10:38:59.270Z,100418.88
2023-01-11T10:41:38.801Z,100418.50
2023-01-11T10:44:24.580Z,100420.94
2023-01-11T10:47:00.063Z,100429.69
2023-01-11T10:49:43.312Z,100418.34
2023-01-11T10:52:39.058Z,100407.44
2023-01-11T10:55:16.985Z,100417.72
2023-01-11T10:58:01.437Z,100412.06
2023-01-11T11:00:45.086Z,100404.75
2023-01-11T11:03:41.400Z,100401.88
2023-01-11T11:06:16.728Z,100397.22
2023-01-11T11:08:54.426Z,100394.50
2023-01-11T11:11:32.774Z,100386.75
2023-01-11T11:14:11.462Z,100384.25
2023-01-11T11:16:56.418Z,100386.22
2023-01-11T11:19:32.279Z,100378.22
2023-01-11T11:22:08.224Z,100376.22
2023-01-11T11:24:41.964Z,100371.69
2023-01-11T11:27:23.649Z,100377.09
2023-01-11T11:29:55.723Z,100377.91
2023-01-11T11:32:36.790Z,100371.34
2023-01-11T11:35:09.044Z,100365.16
2023-01-11T11:37:44.898Z,100367.75
2023-01-11T11:40:31.613Z,100362.91
2023-01-11T11:43:21.015Z,100370.41
2023-01-11T11:45:55.859Z,100349.41
2023-01-11T11:48:31.503Z,100360.41
2023-01-11T11:51:04.069Z,100359.81
2023-01-11T11:53:43.096Z,100360.41
2023-01-11T11:56:22.919Z,100356.16
2023-01-11T11:58:53.890Z,100353.53
2023-01-11T12:01:27.555Z,100343.59
2023-01-11T12:04:03.743Z,100352.28
2023-01-11T12:06:34.008Z,100344.06
2023-01-11T12:09:06.251Z,100348.19
2023-01-11T12:11:42.081Z,100339.75
2023-01-11T12:14:20.709Z,100329.09
2023-01-11T12:16:50.740Z,100331.97
2023-01-11T12:19:38.059Z,100329.78
2023-01-11T12:22:18.531Z,100324.91
2023-01-11T12:25:05.098Z,100335.69
2023-01-11T12:27:43.530Z,100318.78
2023-01-11T12:30:22.739Z,100323.25
2023-01-11T12:33:16.028Z,100316.75
2023-01-11T12:35:58.910Z,100307.63
2023-01-11T12:38:40.885Z,100312.00
2023-01-11T12:41:50.387Z,100307.94
2023-01-11T12:44:39.410Z,100316.75
2023-01-11T12:47:40.841Z,100312.44
2023-01-11T12:50:14.557Z,100312.75
2023-01-11T12:52:59.183Z,100306.78
2023-01-11T12:55:43.116Z,100308.22
2023-01-11T12:58:19.987Z,100298.50
2023-01-11T13:01:14.830Z,100305.03
2023-01-11T13:04:06.440Z,100295.09
2023-01-11T13:06:46.269Z,100291.25
2023-01-11T13:09:32.810Z,100278.53
2023-01-11T13:12:15.584Z,100285.97
2023-01-11T13:15:01.847Z,100279.34
2023-01-11T13:17:40.312Z,100288.47
2023-01-11T13:20:28.311Z,100278.72
2023-01-11T13:23:05.259Z,100281.72
2023-01-11T13:25:42.080Z,100295.09
2023-01-11T13:28:24.373Z,100283.25
2023-01-11T13:30:54.890Z,100282.19
2023-01-11T13:33:27.688Z,100287.47
2023-01-11T13:36:07.496Z,100292.09
2023-01-11T13:38:45.587Z,100293.44
2023-01-11T13:41:22.150Z,100298.25
2023-01-11T13:44:00.417Z,100294.72
2023-01-11T13:46:46.999Z,100294.19
2023-01-11T13:49:28.352Z,100300.63
2023-01-11T13:52:02.878Z,100299.53
2023-01-11T13:54:41.619Z,100290.53
2023-01-11T13:57:40.923Z,100297.38
2023-01-11T14:00:23.491Z,100300.91
2023-01-11T14:03:01.661Z,100305.97
2023-01-11T14:05:42.969Z,100300.13
2023-01-11T14:08:29.121Z,100304.56
2023-01-11T14:11:08.699Z,100301.81
2023-01-11T14:14:18.225Z,100308.72
2023-01-11T14:17:11.401Z,100307.75
2023-01-11T14:19:47.306Z,100310.63
2023-01-11T14:22:26.537Z,100307.22
2023-01-11T14:25:03.685Z,100310.94
2023-01-11T14:28:05.970Z,100303.78
2023-01-11T14:30:54.949Z,100305.16
2023-01-11T14:33:56.110Z,100310.31
2023-01-11T14:36:47.226Z,100306.19
2023-01-11T14:39:50.912Z,100299.81
2023-01-11T14:42:43.580Z,100309.06
2023-01-11T14:45:29.311Z,100308.06
2023-01-11T14:48:24.772Z,100308.59
2023-01-11T14:51:12.384Z,100313.06
2023-01-11T14:53:49.019Z,100307.47
2023-01-11T14:56:40.032Z,100311.38
2023-01-11T14:59:26.045Z,100321.94
2023-01-11T15:02:18.204Z,100313.66
2023-01-11T15:05:10.275Z,100307.63
2023-01-11T15:07:44.313Z,100315.72
2023-01-11T15:10:49.896Z,100315.63
2023-01-11T15:13:24.550Z,100311.50
2023-01-11T15:16:21.466Z,100315.00
2023-01-11T15:18:51.552Z,100318.78
2023-01-11T15:21:27.697Z,100319.47
2023-01-11T15:24:01.914Z,100322.50
2023-01-11T15:26:31.994Z,100324.34
2023-01-11T15:29:04.217Z,100324.03
2023-01-11T15:31:50.608Z,100329.22
2023-01-11T15:34:26.387Z,100330.91
2023-01-11T15:37:26.097Z,100331.34
2023-01-11T15:40:01.610Z,100334.41
2023-01-11T15:43:09.709Z,100333.63
2023-01-11T15:46:24.708Z,100339.38
2023-01-11T15:49:14.602Z,100338.59
2023-01-11T15:52:06.059Z,100345.78
2023-01-11T15:55:10.526Z,100348.00
2023-01-11T15:58:15.233Z,100353.16
2023-01-11T16:01:06.271Z,100358.25
2023-01-11T16:03:59.628Z,100360.34
2023-01-11T16:06:43.415Z,100365.03
2023-01-11T16:09:33.952Z,100363.22
2023-01-11T16:12:30.566Z,100363.34
2023-01-11T16:15:28.893Z,100366.06
2023-01-11T16:18:03.938Z,100375.84
2023-01-11T16:20:34.140Z,100374.09
2023-01-11T16:23:07.489Z,100386.25
2023-01-11T16:25:41.673Z,100377.50
2023-01-11T16:28:21.538Z,100384.72
2023-01-11T16:30:58.962Z,100383.78
2023-01-11T16:33:30.988Z,100395.09
2023-01-11T16:36:14.855Z,100402.56
2023-01-11T16:38:59.833Z,100395.16
2023-01-11T16:41:35.029Z,100400.81
2023-01-11T16:44:11.757Z,100399.31
2023-01-11T16:47:12.175Z,100410.59
2023-01-11T16:49:43.336Z,100420.88
2023-01-11T16:52:39.346Z,100416.88
2023-01-11T16:55:27.379Z,100418.00
2023-01-11T16:58:01.247Z,100428.81
2023-01-11T17:00:38.611Z,100446.13
2023-01-11T17:03:27.299Z,100433.22
2023-01-11T17:06:17.089Z,100422.31
2023-01-11T17:08:50.151Z,100425.69
2023-01-11T17:11:30.970Z,100434.88
2023-01-11T17:14:36.878Z,100436.84
2023-01-11T17:17:16.890Z,100441.16
2023-01-11T17:19:49.571Z,100443.34
2023-01-11T17:22:23.729Z,100444.88
2023-01-11T17:24:57.579Z,100443.06
2023-01-11T17:27:33.160Z,100453.81
2023-01-11T17:30:05.594Z,100445.56
2023-01-11T17:32:42.784Z,100454.50
2023-01-11T17:35:19.494Z,100451.53
2023-01-11T17:37:52.202Z,100455.16
2023-01-11T17:40:28.332Z,100452.31
2023-01-11T17:43:29.637Z,100451.19
2023-01-11T17:46:02.481Z,100461.16
2023-01-11T17:48:36.981Z,100461.81
2023-01-11T17:51:09.843Z,100463.00
2023-01-11T17:53:42.721Z,100469.28
2023-01-11T17:56:41.711Z,100464.97
2023-01-11T17:59:19.490Z,100472.94
2023-01-11T18:01:51.216Z,100476.38
2023-01-11T18:04:40.147Z,100485.00
2023-01-11T18:07:16.525Z,100487.81
2023-01-11T18:09:49.536Z,100491.97
2023-01-11T18:12:22.856Z,100491.34
2023-01-11T18:14:56.354Z,100504.38
2023-01-11T18:17:39.092Z,100501.56
2023-01-11T18:20:42.765Z,100506.84
2023-01-11T18:23:24.808Z,100506.13
2023-01-11T18:26:32.506Z,100513.25
2023-01-11T18:29:02.497Z,100513.28
2023-01-11T18:31:32.996Z,100509.94
2023-01-11T18:34:07.566Z,100520.72
2023-01-11T18:36:40.248Z,100515.09
2023-01-11T18:39:14.280Z,100523.38
2023-01-11T18:41:57.299Z,100528.84
2023-01-11T18:44:31.154Z,100528.75
2023-01-11T18:47:03.520Z,100530.78
2023-01-11T18:49:33.521Z,100529.94
2023-01-11T18:52:06.877Z,100530.28
2023-01-11T18:54:37.016Z,100528.97
2023-01-11T18:57:07.607Z,100536.91
2023-01-11T18:59:37.893Z,100545.28
2023-01-11T19:05:14.538Z,100538.09
2023-01-11T19:07:47.768Z,100550.50
2023-01-11T19:10:19.195Z,100550.03
2023-01-11T19:12:49.642Z,100555.66
2023-01-11T19:15:19.848Z,100562.78
2023-01-11T19:17:49.885Z,100553.53
2023-01-11T19:20:20.409Z,100564.97
2023-01-11T19:22:53.447Z,100570.56
2023-01-11T19:25:23.433Z,100575.38
2023-01-11T19:27:54.916Z,100575.72
2023-01-11T19:30:26.068Z,100572.91
2023-01-11T19:33:11.356Z,100587.13
2023-01-11T19:35:43.287Z,100588.22
2023-01-11T19:38:18.178Z,100592.19
2023-01-11T19:40:50.416Z,100594.31
2023-01-11T19:43:20.763Z,100594.84
2023-01-11T19:45:58.148Z,100597.78
2023-01-11T19:48:28.582Z,100597.63
2023-01-11T19:51:04.412Z,100600.91
2023-01-11T19:53:38.421Z,100600.13
2023-01-11T19:56:11.208Z,100604.13
2023-01-11T19:58:41.971Z,100612.75
2023-01-11T20:01:14.395Z,100615.53
2023-01-11T20:03:44.967Z,100618.19
2023-01-11T20:06:14.981Z,100625.47
2023-01-11T20:08:47.692Z,100626.13
2023-01-11T20:11:18.413Z,100632.88
2023-01-11T20:13:50.750Z,100631.69
2023-01-11T20:16:23.114Z,100629.56
2023-01-11T20:18:54.178Z,100637.16
2023-01-11T20:21:25.401Z,100631.19
2023-01-11T20:23:59.788Z,100625.16
2023-01-11T20:26:30.810Z,100639.66
2023-01-11T20:29:01.402Z,100639.19
2023-01-11T20:31:35.132Z,100640.16
2023-01-11T20:34:08.320Z,100638.13
2023-01-11T20:36:39.361Z,100639.22
2023-01-11T20:39:12.443Z,100630.09
2023-01-11T20:41:51.672Z,100629.94
2023-01-11T20:44:24.012Z,100637.13
2023-01-11T20:46:55.706Z,100638.25
2023-01-11T20:49:28.936Z,100639.81
2023-01-11T20:51:59.222Z,100645.25
2023-01-11T20:54:31.938Z,100644.88
2023-01-11T20:57:05.632Z,100640.72
2023-01-11T20:59:35.770Z,100641.88
2023-01-11T21:02:07.544Z,100643.75
2023-01-11T21:04:38.136Z,100646.38
2023-01-11T21:07:08.154Z,100644.25
2023-01-11T21:09:40.694Z,100645.94
2023-01-11T21:12:30.577Z,100629.78
2023-01-11T21:15:00.520Z,100638.69
2023-01-11T21:17:30.583Z,100635.91
2023-01-11T21:20:14.197Z,100630.31
2023-01-11T21:22:44.151Z,100636.97
2023-01-11T21:25:17.711Z,100637.50
2023-01-11T21:27:47.922Z,100638.78
2023-01-11T21:30:18.691Z,100641.72
2023-01-11T21:32:48.685Z,100646.56
2023-01-11T21:35:18.672Z,100645.03
2023-01-11T21:37:48.689Z,100649.25
2023-01-11T21:40:21.502Z,100644.81
2023-01-11T21:42:51.455Z,100648.00
2023-01-11T21:45:21.602Z,100647.31
2023-01-11T21:47:51.521Z,100647.31
2023-01-11T21:50:21.718Z,100643.41
2023-01-11T21:52:51.632Z,100642.41
2023-01-11T21:55:25.243Z,100635.88
2023-01-11T21:57:55.836Z,100639.59
2023-01-11T22:00:27.648Z,100645.50
2023-01-11T22:02:59.133Z,100637.56
2023-01-11T22:05:29.185Z,100647.69
2023-01-11T22:07:59.252Z,100654.72
2023-01-11T22:10:33.341Z,100653.66
2023-01-11T22:13:03.716Z,100647.47
2023-01-11T22:15:33.809Z,100640.13
2023-01-11T22:18:03.927Z,100639.59
2023-01-11T22:20:34.319Z,100644.13
2023-01-11T22:23:06.679Z,100655.69
2023-01-11T22:25:40.974Z,100656.00
2023-01-11T22:28:10.993Z,100660.22
2023-01-11T22:30:40.992Z,100661.72
2023-01-11T22:33:11.528Z,100658.75
2023-01-11T22:35:43.905Z,100661.34
2023-01-11T22:38:13.893Z,100659.88
2023-01-11T22:40:46.780Z,100656.53
2023-01-11T22:43:16.689Z,100653.44
2023-01-11T22:45:47.060Z,100666.53
2023-01-11T22:48:17.251Z,100663.34
2023-01-11T22:50:47.386Z,100653.97
2023-01-11T22:53:17.345Z,100654.97
2023-01-11T22:55:50.083Z,100663.19
2023-01-11T22:58:20.052Z,100656.47
2023-01-11T23:00:50.016Z,100662.28
2023-01-11T23:03:20.037Z,100659.44
2023-01-11T23:05:50.320Z,100661.53
2023-01-11T23:08:20.471Z,100655.13
2023-01-11T23:10:53.487Z,100655.34
2023-01-11T23:13:35.896Z,100649.84
2023-01-11T23:16:05.893Z,100657.75
2023-01-11T23:18:36.028Z,100655.97
2023-01-11T23:21:06.844Z,100649.41
2023-01-11T23:23:38.092Z,100656.22
2023-01-11T23:26:11.825Z,100653.50
2023-01-11T23:28:42.317Z,100660.06
2023-01-11T23:31:18.180Z,100658.41
2023-01-11T23:33:48.976Z,100657.53
2023-01-11T23:36:20.677Z,100657.03
2023-01-11T23:38:51.473Z,100654.28
2023-01-11T23:41:37.407Z,100656.75
2023-01-11T23:44:09.225Z,100647.59
2023-01-11T23:46:52.371Z,100648.94
2023-01-11T23:49:22.693Z,100656.78
2023-01-11T23:51:52.703Z,100651.91
2023-01-11T23:54:23.062Z,100648.56
2023-01-11T23:56:55.693Z,100644.44
2023-01-11T23:59:25.778Z,100650.03
